Estación Meteorológica Peña el Pijo (Robertgarden) [ 01/30/23 14:09:56 CET ]

Fecha Hora Presion(HPa) Temp (°C) Humedad % Rocio (°C) Viento ( m/s) Direccion Lluvia 1Hora(mm) Lluvia 24H(mm) LLuvia Total(mm)
2010-Jan-01 01:01:11 999.400 2.6 78 -0.9       5.18 59.05
2010-Jan-01 02:03:14 1000.000 1.5 85 -0.8       4.14 59.05
2010-Jan-01 03:01:12 1000.200 2.4 73 -2.0     0.51 4.66 59.57
2010-Jan-01 04:01:13 1000.100 2.4 73 -2.0       4.66 59.57
2010-Jan-01 05:01:12 999.800 2.1 77 -1.5       4.66 59.57
2010-Jan-01 06:01:15 1000.300 2.4 73 -2.0 1.8 SSE   4.66 59.57
2010-Jan-01 07:01:23 1000.800 2.6 77 -1.0       4.66 59.57
2010-Jan-01 08:01:19 1001.300 2.9 73 -1.5       4.66 59.57
2010-Jan-01 09:01:13 1002.300 3.3 71 -1.4 2.4 S   4.66 59.57
2010-Jan-01 10:01:16 1003.400 3.8 73 -0.6       4.66 59.57
2010-Jan-01 11:01:14 1003.900 4.6 74 0.3       4.66 59.57
2010-Jan-01 12:01:16 1003.900 5.9 69 0.7 1.7 SE   4.66 59.57
2010-Jan-01 13:01:13 1003.100 6.8 67 1.1       4.66 59.57
2010-Jan-01 14:01:16 1002.700 7.2 64 0.8       4.66 59.57
2010-Jan-01 15:01:14 1002.500 7.8 60 0.5 2.6 ESE   4.66 59.57
2010-Jan-01 16:01:13 1002.100 6.4 63 -0.2 1.3 NE 1.03 5.69 60.60
2010-Jan-01 17:01:13 1002.900 5.6 69 0.4       5.69 60.60
2010-Jan-01 18:01:17 1003.200 5.6 70 0.6 0.7 E   5.18 60.60
2010-Jan-01 19:01:10 1004.500 5.7 71 0.9       3.62 60.60
2010-Jan-01 20:01:19 1005.000 5.8 69 0.6       3.62 60.60
2010-Jan-01 21:01:14 1005.500 5.4 75 1.3       2.59 60.60
2010-Jan-01 22:01:16 1006.900 5.3 75 1.2       2.07 60.60
2010-Jan-01 23:01:11 1007.900 4.8 80 1.6       1.55 60.60

Temperatura Máxima:    Temperatura Mínima:
Presión Máxima:1007.900 Hpa    Presión Mínima:999.400 Hpa


Volver